Time;durP1;ratioP1;P1;durP2;ratioP2;P2;SDS_P1;SDS_P2;PMS_P1;PMS_P2;Temp;Humidity;BMP_temperature;BMP_pressure;BME280_temperature;BME280_humidity;BME280_pressure;Samples;Min_cycle;Max_cycle;Signal;HPM_P1;HPM_P2
2023/06/29 00:01:45;;;;;;;12.45;3.00;;;;;;;24.40;47.01;98596.25;5092294;28;20549;-46
2023/06/29 00:04:11;;;;;;;12.35;2.83;;;;;;;24.27;46.34;98595.13;5092172;28;20040;-45
2023/06/29 00:06:37;;;;;;;8.85;3.28;;;;;;;23.95;46.50;98590.53;5090884;28;20038;-46
2023/06/29 00:09:05;;;;;;;8.18;3.08;;;;;;;23.66;47.70;98592.25;5090800;28;20032;-46
2023/06/29 00:11:33;;;;;;;6.95;2.33;;;;;;;23.35;48.01;98593.72;5090795;28;20050;-46
2023/06/29 00:13:58;;;;;;;8.07;2.50;;;;;;;23.01;48.29;98590.03;5092005;28;20082;-45
2023/06/29 00:16:24;;;;;;;4.93;2.53;;;;;;;22.65;49.08;98593.06;5090504;28;20486;-46
2023/06/29 00:18:50;;;;;;;13.52;3.55;;;;;;;22.49;50.07;98592.38;5090677;28;20016;-45
2023/06/29 00:21:16;;;;;;;9.70;4.50;;;;;;;22.46;50.42;98582.28;5090957;28;20084;-46
2023/06/29 00:23:42;;;;;;;9.95;4.50;;;;;;;22.49;51.91;98581.69;5091895;28;20145;-45
2023/06/29 00:26:08;;;;;;;11.75;4.25;;;;;;;22.61;50.63;98584.00;5091867;28;20445;-46
2023/06/29 00:28:33;;;;;;;16.60;4.85;;;;;;;22.41;51.66;98590.31;5090632;28;20108;-46
2023/06/29 00:30:59;;;;;;;15.70;5.07;;;;;;;22.66;53.20;98581.28;5090311;28;20126;-45
2023/06/29 00:33:25;;;;;;;10.68;4.22;;;;;;;22.93;51.46;98580.72;5090552;28;20059;-45
2023/06/29 00:35:50;;;;;;;7.40;3.13;;;;;;;22.73;50.89;98579.06;5090477;28;20031;-45
2023/06/29 00:38:16;;;;;;;12.10;3.70;;;;;;;22.67;53.17;98574.06;5090466;28;20477;-45
2023/06/29 00:40:42;;;;;;;14.27;3.63;;;;;;;22.91;52.87;98582.09;5073701;28;20020;-46
2023/06/29 00:43:08;;;;;;;13.70;4.30;;;;;;;22.95;52.66;98577.78;5091770;28;20093;-45
2023/06/29 00:45:34;;;;;;;7.30;4.35;;;;;;;22.77;51.95;98581.97;5090373;28;20032;-46
2023/06/29 00:48:00;;;;;;;12.13;5.00;;;;;;;22.48;51.55;98573.97;5090415;28;20024;-46
2023/06/29 00:50:26;;;;;;;15.07;6.90;;;;;;;22.25;52.27;98575.50;5090385;28;20028;-45
2023/06/29 00:52:52;;;;;;;8.23;4.18;;;;;;;22.14;52.79;98569.41;5090427;28;20028;-45
2023/06/29 00:55:18;;;;;;;10.65;4.25;;;;;;;21.76;53.22;98569.13;5091576;28;20027;-45
2023/06/29 00:57:43;;;;;;;9.50;2.55;;;;;;;21.43;53.73;98570.63;5090315;28;20028;-46
2023/06/29 01:00:10;;;;;;;5.57;2.88;;;;;;;21.03;55.16;98573.16;5091580;28;20509;-46
2023/06/29 01:02:40;;;;;;;11.82;3.10;;;;;;;20.95;56.62;98566.50;5091828;28;20036;-46
2023/06/29 01:05:09;;;;;;;7.00;3.47;;;;;;;20.91;57.22;98564.66;5091452;28;20032;-46
2023/06/29 01:07:52;;;;;;;9.23;3.13;;;;;;;20.80;57.34;98563.84;5090253;28;20558;-45
2023/06/29 01:10:26;;;;;;;7.50;2.95;;;;;;;20.63;57.61;98571.38;5091793;28;20460;-45
2023/06/29 01:12:53;;;;;;;5.72;2.40;;;;;;;20.52;57.39;98563.34;5091565;28;20028;-45
2023/06/29 01:15:21;;;;;;;8.73;3.55;;;;;;;20.46;58.69;98569.72;5090099;28;20101;-45
2023/06/29 01:17:50;;;;;;;4.07;2.40;;;;;;;20.75;58.75;98574.56;5090139;28;20032;-45
2023/06/29 01:20:16;;;;;;;14.15;3.05;;;;;;;20.94;58.40;98567.56;5091379;28;20391;-45
2023/06/29 01:23:12;;;;;;;6.97;2.95;;;;;;;20.99;59.17;98568.59;5090119;28;20024;-46
2023/06/29 01:25:38;;;;;;;5.97;2.58;;;;;;;20.88;57.92;98565.19;5091353;28;20093;-45
2023/06/29 01:28:07;;;;;;;5.07;2.55;;;;;;;20.85;57.22;98566.53;5091670;28;20489;-45
2023/06/29 01:30:33;;;;;;;12.60;3.03;;;;;;;20.86;57.45;98568.09;5093502;28;20027;-46
2023/06/29 01:32:59;;;;;;;8.70;2.90;;;;;;;20.85;58.75;98563.06;5095091;28;20028;-45
2023/06/29 01:35:25;;;;;;;11.52;3.30;;;;;;;20.50;60.97;98560.16;5094981;28;20039;-45
2023/06/29 01:38:07;;;;;;;10.05;3.05;;;;;;;19.88;64.47;98562.00;5094980;28;20497;-44
2023/06/29 01:40:34;;;;;;;8.52;3.10;;;;;;;19.15;67.80;98569.97;5095030;28;20051;-43
2023/06/29 01:43:01;;;;;;;5.32;3.20;;;;;;;18.42;71.41;98567.91;5094855;28;20042;-43
2023/06/29 01:45:27;;;;;;;11.40;2.97;;;;;;;17.98;74.63;98570.72;5076922;28;20040;-44
2023/06/29 01:47:55;;;;;;;10.27;3.20;;;;;;;17.81;77.35;98564.69;5094724;28;20026;-43
2023/06/29 01:50:21;;;;;;;10.32;3.40;;;;;;;17.64;79.42;98559.47;5094703;28;20074;-43
2023/06/29 01:52:47;;;;;;;6.68;3.58;;;;;;;17.62;82.00;98558.94;5094694;28;20020;-43
2023/06/29 01:55:12;;;;;;;7.85;3.38;;;;;;;17.44;83.06;98560.06;5093218;28;20067;-43
2023/06/29 01:57:39;;;;;;;7.30;3.00;;;;;;;17.36;84.69;98559.47;5093296;28;20505;-43
2023/06/29 02:00:05;;;;;;;6.40;3.28;;;;;;;17.45;86.24;98559.00;5094816;28;20056;-43
2023/06/29 02:02:31;;;;;;;7.13;2.78;;;;;;;17.53;87.46;98550.63;5094441;28;20028;-43
2023/06/29 02:04:58;;;;;;;7.85;3.83;;;;;;;17.42;87.66;98549.69;5094630;28;20034;-43
2023/06/29 02:07:24;;;;;;;7.20;3.55;;;;;;;17.29;87.56;98552.72;5093083;28;20048;-43
2023/06/29 02:09:51;;;;;;;7.75;3.70;;;;;;;17.30;88.53;98549.81;5093001;28;20062;-43
2023/06/29 02:12:17;;;;;;;6.45;3.08;;;;;;;17.39;89.31;98552.06;5076322;28;20103;-43
2023/06/29 02:14:43;;;;;;;5.88;3.05;;;;;;;17.38;89.45;98543.25;5094226;28;20110;-44
2023/06/29 02:17:08;;;;;;;10.48;3.85;;;;;;;17.33;88.82;98544.03;5092853;28;20047;-44
2023/06/29 02:19:34;;;;;;;6.15;3.17;;;;;;;17.37;89.09;98544.34;5094189;28;20020;-44
2023/06/29 02:22:00;;;;;;;16.77;4.20;;;;;;;17.52;88.70;98557.75;5092801;28;20024;-44
2023/06/29 02:24:25;;;;;;;19.48;4.03;;;;;;;17.79;89.38;98549.03;5093999;28;20042;-43
2023/06/29 02:26:51;;;;;;;7.15;2.75;;;;;;;17.95;88.22;98557.97;5093918;28;20048;-43
2023/06/29 02:29:17;;;;;;;6.15;2.92;;;;;;;18.06;86.62;98556.19;5092693;28;20431;-43
2023/06/29 02:31:42;;;;;;;6.30;3.20;;;;;;;18.25;86.60;98565.41;5093759;28;20051;-43
2023/06/29 02:34:08;;;;;;;8.23;3.22;;;;;;;18.35;85.99;98560.16;5093773;28;20032;-43
2023/06/29 02:36:34;;;;;;;6.80;3.10;;;;;;;18.53;85.70;98555.50;5092545;28;20490;-43
2023/06/29 02:38:59;;;;;;;9.07;3.63;;;;;;;18.55;83.59;98551.53;5093693;28;20477;-42
2023/06/29 02:41:25;;;;;;;6.53;2.65;;;;;;;18.56;80.78;98555.78;5093758;28;20493;-43
2023/06/29 02:43:52;;;;;;;9.80;3.53;;;;;;;18.55;80.59;98558.69;5093692;28;20031;-43
2023/06/29 02:46:19;;;;;;;7.55;2.97;;;;;;;18.61;81.10;98548.91;5093620;28;20031;-43
2023/06/29 02:48:44;;;;;;;8.10;2.90;;;;;;;18.65;80.62;98558.78;5093596;28;20020;-43
2023/06/29 02:51:10;;;;;;;11.73;4.13;;;;;;;18.66;80.71;98560.38;5093492;28;20030;-43
2023/06/29 02:53:36;;;;;;;7.97;3.03;;;;;;;18.84;81.94;98556.53;5093498;28;20020;-43
2023/06/29 02:56:01;;;;;;;7.70;3.30;;;;;;;18.88;79.89;98551.50;5093378;28;20060;-43
2023/06/29 02:58:27;;;;;;;9.68;3.13;;;;;;;18.81;76.45;98556.25;5093625;28;20031;-43
2023/06/29 03:00:52;;;;;;;6.03;2.97;;;;;;;18.68;76.29;98555.59;5093313;28;20026;-43
2023/06/29 03:03:18;;;;;;;10.95;3.13;;;;;;;18.57;76.57;98553.94;5093591;28;20494;-43
2023/06/29 03:05:44;;;;;;;7.93;3.20;;;;;;;18.54;77.39;98552.59;5093244;28;20028;-43
2023/06/29 03:08:10;;;;;;;7.82;2.83;;;;;;;18.59;78.65;98554.47;5075062;28;20012;-43
2023/06/29 03:10:35;;;;;;;9.60;2.90;;;;;;;18.92;81.12;98566.69;5093148;28;20024;-43
2023/06/29 03:13:01;;;;;;;9.07;3.30;;;;;;;19.55;81.01;98565.88;5091781;28;20020;-44
2023/06/29 03:15:27;;;;;;;10.55;3.30;;;;;;;19.93;79.35;98569.19;5092996;28;20493;-44
2023/06/29 03:17:52;;;;;;;5.40;2.83;;;;;;;19.88;76.91;98566.50;5091777;28;20059;-44
2023/06/29 03:20:18;;;;;;;4.80;2.63;;;;;;;19.75;77.07;98573.16;5093029;28;20393;-44
2023/06/29 03:22:44;;;;;;;14.43;6.20;;;;;;;20.00;77.63;98577.75;5092970;28;20067;-44
2023/06/29 03:25:10;;;;;;;8.25;3.65;;;;;;;20.38;76.70;98572.16;5092938;28;20534;-44
2023/06/29 03:27:37;;;;;;;11.00;3.50;;;;;;;20.54;75.35;98566.56;5092900;28;20024;-45
2023/06/29 03:30:03;;;;;;;6.80;3.45;;;;;;;20.62;74.28;98561.75;5093162;28;20043;-45
2023/06/29 03:32:29;;;;;;;7.68;3.38;;;;;;;20.54;73.52;98568.41;5092632;28;20060;-45
2023/06/29 03:34:55;;;;;;;9.50;3.72;;;;;;;20.45;72.91;98573.47;5092689;28;20035;-45
2023/06/29 03:37:22;;;;;;;5.45;3.22;;;;;;;20.28;70.63;98570.28;5091373;28;20044;-45
2023/06/29 03:39:47;;;;;;;8.85;3.50;;;;;;;20.13;72.87;98569.22;5092674;28;20374;-45
2023/06/29 03:42:13;;;;;;;7.05;3.03;;;;;;;20.20;73.83;98568.94;5092630;28;20154;-45
2023/06/29 03:44:39;;;;;;;6.30;3.15;;;;;;;20.03;72.56;98571.88;5092815;28;20070;-45
2023/06/29 03:47:07;;;;;;;6.45;3.22;;;;;;;19.77;72.73;98576.34;5091537;28;20093;-45
2023/06/29 03:49:33;;;;;;;8.68;3.30;;;;;;;19.61;73.07;98574.69;5091232;28;20020;-45
2023/06/29 03:51:59;;;;;;;6.93;3.20;;;;;;;19.52;71.33;98574.41;5091956;28;20397;-45
2023/06/29 03:54:26;;;;;;;5.75;3.72;;;;;;;19.36;71.01;98579.66;5092309;28;20020;-45
2023/06/29 03:56:52;;;;;;;15.15;3.88;;;;;;;19.49;72.25;98583.69;5092293;28;20020;-45
2023/06/29 03:59:17;;;;;;;8.10;3.35;;;;;;;19.95;72.21;98583.84;5091116;28;20036;-45
2023/06/29 04:01:43;;;;;;;11.38;3.28;;;;;;;20.31;70.88;98583.09;5090909;28;20044;-45
2023/06/29 04:04:09;;;;;;;8.93;3.38;;;;;;;20.52;70.17;98579.34;5090919;28;20019;-45
2023/06/29 04:06:34;;;;;;;14.20;5.15;;;;;;;20.36;67.90;98591.06;5090858;28;20056;-45
2023/06/29 04:09:00;;;;;;;13.25;3.78;;;;;;;20.02;68.86;98588.09;5090917;28;20111;-45
2023/06/29 04:11:26;;;;;;;32.35;9.20;;;;;;;19.94;69.04;98586.75;5090790;28;20123;-44
2023/06/29 04:13:51;;;;;;;18.20;4.13;;;;;;;19.65;67.46;98584.53;5092132;28;20024;-45
2023/06/29 04:16:17;;;;;;;8.60;3.53;;;;;;;19.22;68.01;98589.19;5090712;28;20039;-45
2023/06/29 04:18:43;;;;;;;7.15;3.33;;;;;;;18.87;68.79;98585.25;5092066;28;20489;-45
2023/06/29 04:21:09;;;;;;;11.15;3.45;;;;;;;18.68;69.49;98592.03;5092053;28;20473;-45
2023/06/29 04:23:34;;;;;;;12.70;3.90;;;;;;;18.59;70.10;98582.91;5073957;28;20031;-45
2023/06/29 04:26:03;;;;;;;12.43;3.88;;;;;;;18.64;70.66;98580.31;5090608;28;20539;-45
2023/06/29 04:28:35;;;;;;;8.23;3.17;;;;;;;18.67;70.12;98582.44;5091876;28;20090;-45
2023/06/29 04:31:02;;;;;;;6.85;3.85;;;;;;;18.66;69.90;98579.00;5090337;28;20383;-44
2023/06/29 04:33:27;;;;;;;9.40;4.25;;;;;;;18.65;70.07;98579.22;5091860;28;20031;-45
2023/06/29 04:35:53;;;;;;;10.27;4.00;;;;;;;18.79;70.61;98580.41;5090405;28;20028;-45
2023/06/29 04:38:27;;;;;;;41.72;37.45;;;;;;;18.87;69.61;98579.16;5090539;28;20450;-45
2023/06/29 04:41:11;;;;;;;25.50;19.73;;;;;;;18.83;69.44;98583.38;5090651;28;20028;-45
2023/06/29 04:43:36;;;;;;;57.17;51.10;;;;;;;18.93;70.21;98591.41;5090518;28;20478;-45
2023/06/29 04:46:03;;;;;;;20.15;10.00;;;;;;;19.28;70.21;98590.81;5090440;28;20027;-45
2023/06/29 04:48:32;;;;;;;11.95;6.65;;;;;;;19.56;68.45;98597.56;5091763;28;20032;-45
2023/06/29 04:51:04;;;;;;;10.35;3.97;;;;;;;19.64;66.75;98598.94;5091583;28;20027;-45
2023/06/29 04:53:33;;;;;;;8.68;4.45;;;;;;;19.65;66.66;98591.75;5091741;28;20035;-45
2023/06/29 04:55:59;;;;;;;9.80;4.32;;;;;;;19.70;65.94;98595.22;5091548;28;20074;-45
2023/06/29 04:58:25;;;;;;;7.50;4.18;;;;;;;19.77;65.26;98599.53;5091680;28;20486;-45
2023/06/29 05:00:51;;;;;;;12.52;3.97;;;;;;;19.88;65.35;98609.13;5091612;28;20036;-45
2023/06/29 05:03:16;;;;;;;11.93;4.47;;;;;;;20.07;64.94;98606.78;5092248;28;20036;-45
2023/06/29 05:05:44;;;;;;;9.60;3.83;;;;;;;20.25;64.14;98597.47;5095595;28;20027;-45
2023/06/29 05:08:10;;;;;;;9.77;3.88;;;;;;;20.40;63.39;98602.78;5094302;28;20523;-45
2023/06/29 05:10:35;;;;;;;13.10;3.85;;;;;;;20.59;63.06;98603.09;5095476;28;20048;-45
2023/06/29 05:13:01;;;;;;;12.73;6.35;;;;;;;20.91;62.04;98599.34;5094245;28;20020;-45
2023/06/29 05:15:28;;;;;;;8.88;4.38;;;;;;;21.26;61.19;98606.44;5095369;28;20397;-45
2023/06/29 05:17:54;;;;;;;13.48;4.15;;;;;;;21.99;59.72;98613.03;5095384;28;20082;-45
2023/06/29 05:20:20;;;;;;;10.88;3.80;;;;;;;22.62;57.76;98615.03;5095351;28;20047;-45
2023/06/29 05:22:45;;;;;;;8.88;3.92;;;;;;;23.22;56.16;98609.38;5095263;28;20474;-45
2023/06/29 05:25:12;;;;;;;12.02;6.40;;;;;;;23.42;54.85;98603.00;5093922;28;20024;-45
2023/06/29 05:27:37;;;;;;;8.27;3.35;;;;;;;23.84;53.16;98603.25;5093855;28;20105;-45
2023/06/29 05:30:04;;;;;;;7.65;3.38;;;;;;;24.18;52.23;98611.06;5095063;28;20481;-45
2023/06/29 05:32:30;;;;;;;10.85;4.38;;;;;;;24.67;51.32;98608.97;5093589;28;20402;-45
2023/06/29 05:34:56;;;;;;;11.02;3.97;;;;;;;25.32;49.61;98608.09;5094970;28;20030;-45
2023/06/29 05:37:24;;;;;;;19.52;4.32;;;;;;;26.01;47.54;98599.91;5093687;28;20529;-45
2023/06/29 05:39:50;;;;;;;23.17;5.57;;;;;;;26.63;45.77;98601.94;5093630;28;20055;-45
2023/06/29 05:42:16;;;;;;;31.23;5.03;;;;;;;27.09;44.56;98606.09;5094866;28;20112;-45
2023/06/29 05:44:41;;;;;;;33.03;5.40;;;;;;;27.54;43.42;98607.84;5093577;28;20027;-46
2023/06/29 05:47:07;;;;;;;43.22;7.75;;;;;;;27.93;42.88;98602.69;5093483;28;20114;-45
2023/06/29 05:49:33;;;;;;;491.13;448.67;;;;;;;28.21;42.05;98613.94;5094711;28;20556;-45
2023/06/29 05:51:59;;;;;;;57.13;37.60;;;;;;;28.40;41.98;98605.50;5094722;28;20100;-46
2023/06/29 05:54:24;;;;;;;33.63;7.45;;;;;;;28.67;40.94;98612.47;5094622;28;20030;-46
2023/06/29 05:56:50;;;;;;;36.50;7.18;;;;;;;29.16;40.00;98609.47;5094613;28;20035;-45
2023/06/29 05:59:16;;;;;;;43.33;6.75;;;;;;;29.53;39.22;98615.16;5094614;28;20032;-46
2023/06/29 06:01:41;;;;;;;34.05;5.63;;;;;;;29.92;38.27;98611.22;5094522;28;20095;-46
2023/06/29 06:04:07;;;;;;;22.08;5.88;;;;;;;30.21;37.39;98604.16;5094522;28;20036;-46
2023/06/29 06:06:33;;;;;;;20.92;5.18;;;;;;;30.35;36.67;98604.69;5093105;28;20020;-46
2023/06/29 06:08:59;;;;;;;20.23;5.22;;;;;;;30.40;36.33;98599.03;5093102;28;20115;-46
2023/06/29 06:11:24;;;;;;;36.47;6.07;;;;;;;30.54;36.35;98595.25;5093023;28;20520;-46
2023/06/29 06:13:50;;;;;;;29.75;5.20;;;;;;;30.81;35.65;98593.84;5092547;28;20035;-46
2023/06/29 06:16:16;;;;;;;33.50;7.28;;;;;;;31.20;35.20;98599.75;5092844;28;20024;-46
2023/06/29 06:18:42;;;;;;;54.30;8.15;;;;;;;31.53;34.18;98599.66;5094242;28;20080;-46
2023/06/29 06:21:07;;;;;;;33.42;7.13;;;;;;;31.72;34.28;98599.03;5092889;28;20031;-46
2023/06/29 06:23:33;;;;;;;37.33;7.43;;;;;;;32.00;33.44;98598.31;5092784;28;20480;-46
2023/06/29 06:25:59;;;;;;;31.08;6.95;;;;;;;32.32;33.14;98598.41;5092721;28;20024;-46
2023/06/29 06:28:25;;;;;;;20.98;5.80;;;;;;;32.70;31.76;98595.16;5093991;28;20039;-46
2023/06/29 06:30:51;;;;;;;17.88;5.35;;;;;;;32.98;31.42;98595.06;5092378;28;20545;-46
2023/06/29 06:33:17;;;;;;;23.67;6.78;;;;;;;33.21;31.55;98595.22;5094293;28;20161;-46
2023/06/29 06:35:43;;;;;;;22.20;5.10;;;;;;;33.56;30.89;98594.41;5092480;28;20051;-46
2023/06/29 06:38:09;;;;;;;22.55;4.82;;;;;;;33.88;30.00;98597.06;5092529;28;20401;-46
2023/06/29 06:40:34;;;;;;;24.45;5.53;;;;;;;34.22;29.57;98597.38;5092450;28;20024;-46
2023/06/29 06:43:00;;;;;;;18.88;5.13;;;;;;;34.49;28.78;98598.25;5094031;28;20020;-46
2023/06/29 06:45:26;;;;;;;23.90;5.63;;;;;;;34.77;28.34;98600.72;5093669;28;20107;-46
2023/06/29 06:47:51;;;;;;;41.03;7.95;;;;;;;35.09;27.71;98600.44;5093683;28;20020;-46
2023/06/29 06:50:17;;;;;;;16.80;5.47;;;;;;;35.52;27.18;98600.31;5093811;28;20043;-46
2023/06/29 06:52:43;;;;;;;14.43;5.72;;;;;;;35.76;26.63;98596.38;5092183;28;20020;-46
2023/06/29 06:55:09;;;;;;;35.95;6.60;;;;;;;35.99;26.48;98599.75;5093414;28;20034;-46
2023/06/29 06:57:34;;;;;;;26.13;5.88;;;;;;;36.14;26.17;98597.97;5092401;28;20068;-46
2023/06/29 07:00:00;;;;;;;33.13;6.55;;;;;;;36.19;26.27;98607.81;5092166;28;20069;-46
2023/06/29 07:02:26;;;;;;;21.88;5.65;;;;;;;36.25;26.33;98609.03;5093590;28;20093;-46
2023/06/29 07:04:51;;;;;;;16.65;5.38;;;;;;;36.51;25.87;98610.88;5092041;28;20020;-46
2023/06/29 07:07:17;;;;;;;26.50;5.93;;;;;;;36.37;26.41;98606.03;5093300;28;20024;-46
2023/06/29 07:09:43;;;;;;;32.58;5.93;;;;;;;36.19;26.32;98611.31;5091915;28;20030;-46
2023/06/29 07:12:09;;;;;;;16.52;5.72;;;;;;;36.15;26.01;98609.72;5091867;28;20428;-46
2023/06/29 07:14:36;;;;;;;19.25;6.78;;;;;;;36.38;25.46;98613.09;5093094;28;20263;-46
2023/06/29 07:17:01;;;;;;;15.07;6.45;;;;;;;36.70;25.81;98612.63;5091814;28;20056;-46
2023/06/29 07:19:27;;;;;;;21.42;5.90;;;;;;;36.66;25.53;98611.03;5074879;28;20067;-46
2023/06/29 07:21:52;;;;;;;10.38;5.25;;;;;;;36.51;25.61;98615.56;5091703;28;20566;-46
2023/06/29 07:24:20;;;;;;;17.20;5.90;;;;;;;36.40;25.45;98623.63;5092951;28;20440;-46
2023/06/29 07:26:46;;;;;;;19.00;6.35;;;;;;;36.49;25.44;98620.63;5092116;28;20521;-46
2023/06/29 07:29:12;;;;;;;18.52;5.90;;;;;;;36.60;25.65;98618.75;5092851;28;20024;-46
2023/06/29 07:31:39;;;;;;;24.67;7.20;;;;;;;36.50;25.44;98605.75;5091236;28;20044;-46
2023/06/29 07:34:05;;;;;;;21.48;6.32;;;;;;;36.27;25.79;98606.72;5092675;28;20021;-46
2023/06/29 07:36:31;;;;;;;19.20;5.53;;;;;;;36.31;25.79;98620.44;5092686;28;20103;-46
2023/06/29 07:38:57;;;;;;;14.48;5.63;;;;;;;36.35;25.77;98621.25;5091417;28;20562;-46
2023/06/29 07:41:23;;;;;;;24.75;6.20;;;;;;;36.37;25.89;98619.72;5092543;28;20099;-46
2023/06/29 07:43:54;;;;;;;18.13;5.85;;;;;;;36.28;25.70;98615.69;5092637;28;20024;-46
2023/06/29 07:46:20;;;;;;;24.90;6.25;;;;;;;36.81;25.30;98612.72;5092830;28;20020;-47
2023/06/29 07:48:47;;;;;;;27.20;5.80;;;;;;;37.16;24.60;98616.91;5092777;28;20112;-47
2023/06/29 07:51:12;;;;;;;11.35;5.07;;;;;;;37.44;24.49;98610.06;5092498;28;20028;-46
2023/06/29 07:53:38;;;;;;;26.77;6.07;;;;;;;37.65;23.68;98604.72;5091062;28;20077;-47
2023/06/29 07:56:04;;;;;;;23.90;6.03;;;;;;;37.94;23.59;98607.59;5092310;28;20051;-47
2023/06/29 07:58:30;;;;;;;10.93;5.65;;;;;;;38.05;22.88;98593.91;5091071;28;20039;-47
2023/06/29 08:00:55;;;;;;;12.13;5.20;;;;;;;38.65;22.64;98598.75;5092293;28;20043;-47
2023/06/29 08:03:22;;;;;;;21.95;6.18;;;;;;;39.27;22.37;98591.31;5090925;28;20024;-46
2023/06/29 08:05:49;;;;;;;30.38;7.47;;;;;;;39.67;21.84;98587.28;5092212;28;20032;-47
2023/06/29 08:08:14;;;;;;;15.95;6.40;;;;;;;39.89;21.27;98585.25;5090893;28;20020;-47
2023/06/29 08:10:40;;;;;;;26.65;8.10;;;;;;;40.23;21.05;98595.66;5092153;28;20031;-47
2023/06/29 08:13:06;;;;;;;10.48;5.72;;;;;;;40.53;20.56;98580.56;5074020;28;20512;-47
2023/06/29 08:15:32;;;;;;;8.73;4.82;;;;;;;40.35;20.59;98588.94;5091954;28;20024;-47
2023/06/29 08:17:58;;;;;;;8.23;5.03;;;;;;;40.42;20.08;98586.13;5092080;28;20128;-47
2023/06/29 08:20:26;;;;;;;9.48;5.18;;;;;;;39.58;20.82;98577.91;5091194;28;20440;-47
2023/06/29 08:22:52;;;;;;;8.75;5.25;;;;;;;39.31;21.45;98583.84;5092089;28;20016;-47
2023/06/29 08:25:21;;;;;;;16.10;5.82;;;;;;;39.30;21.43;98577.56;5090626;28;20028;-47
2023/06/29 08:27:46;;;;;;;9.88;5.18;;;;;;;38.86;21.28;98569.75;5090744;28;20024;-46
2023/06/29 08:30:12;;;;;;;11.77;5.05;;;;;;;38.76;22.06;98572.13;5090635;28;20024;-47
2023/06/29 08:32:38;;;;;;;19.27;5.60;;;;;;;39.48;21.45;98569.31;5073554;28;20437;-47
2023/06/29 08:35:04;;;;;;;18.10;6.05;;;;;;;40.17;20.41;98567.03;5091812;28;20062;-47
2023/06/29 08:37:30;;;;;;;9.48;4.88;;;;;;;40.00;20.21;98567.91;5094749;28;20028;-48
2023/06/29 08:39:56;;;;;;;18.52;5.40;;;;;;;40.29;20.15;98563.81;5098821;28;20028;-47
2023/06/29 08:42:23;;;;;;;17.30;5.65;;;;;;;41.17;19.19;98567.41;5098427;28;20500;-47
2023/06/29 08:44:50;;;;;;;12.35;4.60;;;;;;;41.15;19.16;98558.78;5098457;28;20031;-47
2023/06/29 08:47:16;;;;;;;13.52;4.40;;;;;;;40.92;19.03;98560.19;5098557;28;20026;-47
2023/06/29 08:49:44;;;;;;;38.55;6.90;;;;;;;41.21;19.29;98562.69;5097178;28;20031;-47
2023/06/29 08:52:15;;;;;;;18.45;4.63;;;;;;;41.86;18.90;98559.97;5098467;28;20103;-47
2023/06/29 08:54:42;;;;;;;54.00;7.18;;;;;;;42.60;18.57;98559.28;5097123;28;20139;-47
2023/06/29 08:57:09;;;;;;;22.77;4.90;;;;;;;43.08;17.54;98552.53;5097084;28;20030;-47
2023/06/29 08:59:37;;;;;;;21.08;5.40;;;;;;;43.69;16.96;98551.38;5098389;28;20020;-47
2023/06/29 09:02:05;;;;;;;10.88;4.43;;;;;;;43.97;16.41;98546.41;5097070;28;20122;-47
2023/06/29 09:04:31;;;;;;;15.50;4.60;;;;;;;43.85;16.97;98547.84;5098361;28;20020;-47
2023/06/29 09:06:56;;;;;;;17.85;5.07;;;;;;;43.60;16.95;98548.38;5097060;28;20119;-48
2023/06/29 09:09:23;;;;;;;28.88;4.93;;;;;;;43.53;17.18;98554.84;5096826;28;20023;-48
2023/06/29 09:11:49;;;;;;;21.73;4.90;;;;;;;43.82;16.72;98548.72;5098215;28;20024;-47
2023/06/29 09:14:15;;;;;;;62.95;8.27;;;;;;;44.18;16.61;98550.69;5098107;28;20099;-47
2023/06/29 09:17:01;;;;;;;20.30;4.80;;;;;;;44.20;15.93;98549.06;5098151;28;20038;-47
2023/06/29 09:19:29;;;;;;;11.45;4.15;;;;;;;44.27;15.95;98546.13;5096967;28;20097;-49
2023/06/29 09:21:57;;;;;;;97.38;9.45;;;;;;;44.32;16.15;98541.28;5098239;28;20020;-50
2023/06/29 09:24:27;;;;;;;22.20;5.32;;;;;;;44.53;16.29;98549.06;5098097;28;20024;-49
2023/06/29 09:26:54;;;;;;;24.17;5.45;;;;;;;44.41;16.38;98550.53;5096866;28;20027;-50
2023/06/29 09:29:21;;;;;;;31.67;7.47;;;;;;;44.46;16.09;98543.69;5096822;28;20401;-49
2023/06/29 09:31:56;;;;;;;28.98;5.68;;;;;;;44.08;16.52;98544.22;5097868;28;20047;-50
2023/06/29 09:34:26;;;;;;;23.73;7.03;;;;;;;43.87;16.40;98548.22;5096764;28;20020;-50
2023/06/29 09:36:52;;;;;;;38.67;7.18;;;;;;;44.07;16.62;98548.16;5098012;28;20516;-50
2023/06/29 09:39:19;;;;;;;69.40;9.00;;;;;;;44.49;16.18;98540.06;5096695;28;20020;-50
2023/06/29 09:41:47;;;;;;;30.10;5.88;;;;;;;44.65;15.76;98537.31;5096674;28;20020;-50
2023/06/29 09:44:16;;;;;;;14.32;4.65;;;;;;;44.76;15.83;98539.03;5097901;28;20034;-49
2023/06/29 09:46:43;;;;;;;11.18;3.85;;;;;;;44.83;15.48;98538.81;5096706;28;20038;-50
2023/06/29 09:49:09;;;;;;;13.00;4.47;;;;;;;44.67;15.89;98529.34;5095056;28;20016;-50
2023/06/29 09:51:34;;;;;;;16.85;4.65;;;;;;;44.25;16.68;98540.25;5094802;28;20507;-50
2023/06/29 09:54:01;;;;;;;15.70;4.90;;;;;;;43.94;16.31;98523.16;5093409;28;20039;-50
2023/06/29 09:56:30;;;;;;;26.63;5.60;;;;;;;43.89;16.30;98523.69;5093554;28;20031;-50
2023/06/29 09:58:56;;;;;;;16.48;5.40;;;;;;;43.76;16.81;98528.31;5094586;28;20056;-50
2023/06/29 10:01:26;;;;;;;12.63;4.32;;;;;;;43.02;17.20;98532.91;5094497;28;20088;-50
2023/06/29 10:03:52;;;;;;;12.95;4.95;;;;;;;42.72;17.09;98520.03;5094518;28;20818;-50
2023/06/29 10:06:21;;;;;;;16.73;5.30;;;;;;;42.52;17.33;98519.97;5093076;28;20043;-49
2023/06/29 10:08:53;;;;;;;12.50;4.28;;;;;;;42.83;16.95;98517.09;5094426;28;20517;-49
2023/06/29 10:11:21;;;;;;;9.88;4.35;;;;;;;42.75;17.70;98516.44;5094348;28;20489;-49
2023/06/29 10:13:49;;;;;;;9.73;4.20;;;;;;;42.82;17.42;98515.50;5094324;28;20422;-49
2023/06/29 10:16:19;;;;;;;13.88;4.32;;;;;;;43.07;17.15;98515.84;5094169;28;20417;-49
2023/06/29 10:18:47;;;;;;;14.65;3.90;;;;;;;43.23;16.84;98514.38;5094179;28;20032;-49
2023/06/29 10:21:13;;;;;;;16.98;4.43;;;;;;;43.36;17.31;98515.31;5094196;28;20114;-49
2023/06/29 10:23:42;;;;;;;16.30;4.07;;;;;;;43.65;16.53;98511.94;5094142;28;20397;-50
2023/06/29 10:26:10;;;;;;;15.63;4.97;;;;;;;43.93;16.76;98507.00;5092762;28;20400;-49
2023/06/29 10:28:36;;;;;;;8.80;3.65;;;;;;;44.13;16.42;98501.41;5092746;28;20060;-50
2023/06/29 10:31:02;;;;;;;9.93;4.13;;;;;;;43.83;16.44;98501.28;5093725;28;20132;-49
2023/06/29 10:33:28;;;;;;;10.70;3.85;;;;;;;43.97;16.71;98491.09;5093977;28;20438;-49
2023/06/29 10:35:58;;;;;;;5.70;3.90;;;;;;;44.21;16.19;98495.28;5092468;28;20051;-50
2023/06/29 10:38:31;;;;;;;8.90;3.72;;;;;;;44.35;15.98;98491.38;5093897;28;20436;-50
2023/06/29 10:40:57;;;;;;;10.60;3.88;;;;;;;44.87;15.62;98486.91;5093763;28;20039;-49
2023/06/29 10:43:26;;;;;;;6.50;3.60;;;;;;;44.65;15.37;98484.72;5092473;28;20040;-50
2023/06/29 10:45:52;;;;;;;14.38;4.18;;;;;;;43.47;16.52;98481.94;5093716;28;20030;-50
2023/06/29 10:48:17;;;;;;;15.60;4.22;;;;;;;43.62;16.84;98474.09;5093675;28;20408;-49
2023/06/29 10:50:49;;;;;;;20.20;4.70;;;;;;;43.97;16.79;98478.06;5093617;28;20362;-49
2023/06/29 10:53:17;;;;;;;9.57;4.25;;;;;;;43.93;16.11;98466.31;5093551;28;20049;-49
2023/06/29 10:55:44;;;;;;;11.07;4.18;;;;;;;44.21;16.15;98475.94;5092154;28;20028;-49
2023/06/29 10:58:20;;;;;;;19.70;5.07;;;;;;;44.18;16.14;98471.25;5092144;28;20028;-49
2023/06/29 11:00:47;;;;;;;11.52;4.32;;;;;;;44.25;16.34;98467.50;5092273;28;20024;-49
2023/06/29 11:03:13;;;;;;;16.38;4.72;;;;;;;44.19;16.24;98472.81;5093296;28;20031;-50
2023/06/29 11:05:39;;;;;;;12.30;4.28;;;;;;;43.97;16.36;98466.19;5093319;28;20396;-49
2023/06/29 11:08:07;;;;;;;17.15;4.72;;;;;;;44.10;16.41;98458.81;5093290;28;20022;-50
2023/06/29 11:10:34;;;;;;;11.95;4.05;;;;;;;44.52;15.74;98458.19;5093241;28;20027;-49
2023/06/29 11:13:00;;;;;;;23.73;5.60;;;;;;;44.48;16.03;98455.50;5093240;28;20032;-49
2023/06/29 11:15:27;;;;;;;15.65;5.57;;;;;;;44.26;15.95;98456.03;5091836;28;20028;-49
2023/06/29 11:17:53;;;;;;;12.88;4.32;;;;;;;43.81;15.78;98447.63;5091849;28;20020;-49
2023/06/29 11:20:21;;;;;;;19.98;4.60;;;;;;;43.90;15.70;98453.34;5074915;28;20023;-49
2023/06/29 11:22:48;;;;;;;22.55;5.25;;;;;;;43.90;15.61;98453.34;5093329;28;20020;-49
2023/06/29 11:25:15;;;;;;;21.65;5.88;;;;;;;43.70;15.90;98447.09;5091562;28;20038;-49